sensor_id;sensor_type;location;lat;lon;timestamp;pressure;altitude;pressure_sealevel;temperature;humidity
26697;BME280;14312;52.614;13.496;2023-05-24T00:01:56;101127.66;;;14.52;53.44
26697;BME280;14312;52.614;13.496;2023-05-24T00:04:42;101123.06;;;14.47;53.51
26697;BME280;14312;52.614;13.496;2023-05-24T00:07:29;101125.44;;;14.44;53.53
26697;BME280;14312;52.614;13.496;2023-05-24T00:10:15;101132.13;;;14.41;53.63
26697;BME280;14312;52.614;13.496;2023-05-24T00:13:01;101127.72;;;14.35;53.44
26697;BME280;14312;52.614;13.496;2023-05-24T00:15:47;101134.16;;;14.34;53.67
26697;BME280;14312;52.614;13.496;2023-05-24T00:18:33;101131.97;;;14.31;53.41
26697;BME280;14312;52.614;13.496;2023-05-24T00:21:20;101134.09;;;14.29;53.53
26697;BME280;14312;52.614;13.496;2023-05-24T00:24:05;101140.78;;;14.27;53.67
26697;BME280;14312;52.614;13.496;2023-05-24T00:26:51;101135.91;;;14.24;53.59
26697;BME280;14312;52.614;13.496;2023-05-24T00:29:37;101138.84;;;14.22;53.51
26697;BME280;14312;52.614;13.496;2023-05-24T00:32:23;101148.47;;;14.18;53.62
26697;BME280;14312;52.614;13.496;2023-05-24T00:35:09;101138.22;;;14.15;53.35
26697;BME280;14312;52.614;13.496;2023-05-24T00:37:56;101139.00;;;14.10;53.37
26697;BME280;14312;52.614;13.496;2023-05-24T00:40:41;101137.31;;;14.04;53.45
26697;BME280;14312;52.614;13.496;2023-05-24T00:43:27;101132.97;;;13.98;53.44
26697;BME280;14312;52.614;13.496;2023-05-24T00:46:17;101141.72;;;13.94;53.63
26697;BME280;14312;52.614;13.496;2023-05-24T00:49:03;101143.53;;;13.88;53.30
26697;BME280;14312;52.614;13.496;2023-05-24T00:51:50;101141.63;;;13.84;53.51
26697;BME280;14312;52.614;13.496;2023-05-24T00:54:37;101145.28;;;13.78;53.63
26697;BME280;14312;52.614;13.496;2023-05-24T00:57:25;101143.59;;;13.71;53.47
26697;BME280;14312;52.614;13.496;2023-05-24T01:00:12;101136.31;;;13.67;53.51
26697;BME280;14312;52.614;13.496;2023-05-24T01:02:58;101135.66;;;13.60;53.58
26697;BME280;14312;52.614;13.496;2023-05-24T01:05:45;101135.63;;;13.55;53.69
26697;BME280;14312;52.614;13.496;2023-05-24T01:11:47;101129.88;;;13.46;53.72
26697;BME280;14312;52.614;13.496;2023-05-24T01:14:43;101140.00;;;13.44;54.18
26697;BME280;14312;52.614;13.496;2023-05-24T01:20:23;101137.84;;;13.41;54.15
26697;BME280;14312;52.614;13.496;2023-05-24T01:23:31;101141.06;;;13.43;54.42
26697;BME280;14312;52.614;13.496;2023-05-24T01:26:39;101141.06;;;13.43;54.24
26697;BME280;14312;52.614;13.496;2023-05-24T01:29:28;101145.34;;;13.44;54.19
26697;BME280;14312;52.614;13.496;2023-05-24T01:32:14;101145.13;;;13.46;54.30
26697;BME280;14312;52.614;13.496;2023-05-24T01:35:02;101145.13;;;13.46;54.14
26697;BME280;14312;52.614;13.496;2023-05-24T01:37:48;101145.44;;;13.49;54.18
26697;BME280;14312;52.614;13.496;2023-05-24T01:40:35;101150.88;;;13.54;54.32
26697;BME280;14312;52.614;13.496;2023-05-24T01:46:20;101152.56;;;13.60;54.26
26697;BME280;14312;52.614;13.496;2023-05-24T01:49:25;101155.28;;;13.65;54.46
26697;BME280;14312;52.614;13.496;2023-05-24T01:52:15;101146.78;;;13.68;54.25
26697;BME280;14312;52.614;13.496;2023-05-24T01:55:02;101152.69;;;13.70;54.21
26697;BME280;14312;52.614;13.496;2023-05-24T01:57:49;101148.47;;;13.75;53.57
26697;BME280;14312;52.614;13.496;2023-05-24T02:00:37;101151.72;;;13.77;53.52
26697;BME280;14312;52.614;13.496;2023-05-24T02:03:24;101152.25;;;13.79;53.95
26697;BME280;14312;52.614;13.496;2023-05-24T02:06:10;101149.09;;;13.82;53.89
26697;BME280;14312;52.614;13.496;2023-05-24T02:08:56;101152.34;;;13.84;53.82
26697;BME280;14312;52.614;13.496;2023-05-24T02:11:42;101151.81;;;13.87;53.83
26697;BME280;14312;52.614;13.496;2023-05-24T02:14:28;101151.56;;;13.88;53.86
26697;BME280;14312;52.614;13.496;2023-05-24T02:17:14;101149.47;;;13.90;53.73
26697;BME280;14312;52.614;13.496;2023-05-24T02:20:02;101142.25;;;13.91;53.74
26697;BME280;14312;52.614;13.496;2023-05-24T02:22:49;101139.00;;;13.89;53.61
26697;BME280;14312;52.614;13.496;2023-05-24T02:25:35;101146.53;;;13.92;53.51
26697;BME280;14312;52.614;13.496;2023-05-24T02:28:21;101150.81;;;13.93;53.57
26697;BME280;14312;52.614;13.496;2023-05-24T02:31:07;101148.13;;;13.93;53.63
26697;BME280;14312;52.614;13.496;2023-05-24T02:33:54;101150.56;;;13.94;53.51
26697;BME280;14312;52.614;13.496;2023-05-24T02:36:40;101146.28;;;13.93;53.79
26697;BME280;14312;52.614;13.496;2023-05-24T02:39:27;101148.13;;;13.93;53.67
26697;BME280;14312;52.614;13.496;2023-05-24T02:42:13;101148.72;;;13.95;53.67
26697;BME280;14312;52.614;13.496;2023-05-24T02:44:58;101147.91;;;13.94;53.66
26697;BME280;14312;52.614;13.496;2023-05-24T02:47:44;101148.72;;;13.95;53.78
26697;BME280;14312;52.614;13.496;2023-05-24T02:50:32;101151.16;;;13.96;53.64
26697;BME280;14312;52.614;13.496;2023-05-24T02:53:18;101155.69;;;13.96;53.68
26697;BME280;14312;52.614;13.496;2023-05-24T02:56:04;101150.34;;;13.96;53.77
26697;BME280;14312;52.614;13.496;2023-05-24T02:58:51;101150.34;;;13.96;53.74
26697;BME280;14312;52.614;13.496;2023-05-24T03:01:38;101153.00;;;13.96;53.76
26697;BME280;14312;52.614;13.496;2023-05-24T03:04:25;101147.41;;;13.97;53.68
26697;BME280;14312;52.614;13.496;2023-05-24T03:07:11;101148.22;;;13.98;53.72
26697;BME280;14312;52.614;13.496;2023-05-24T03:09:56;101146.59;;;13.97;53.79
26697;BME280;14312;52.614;13.496;2023-05-24T03:12:42;101155.22;;;13.99;53.72
26697;BME280;14312;52.614;13.496;2023-05-24T03:15:28;101154.41;;;13.98;53.74
26697;BME280;14312;52.614;13.496;2023-05-24T03:18:14;101152.78;;;13.97;53.70
26697;BME280;14312;52.614;13.496;2023-05-24T03:21:00;101158.94;;;13.98;53.86
26697;BME280;14312;52.614;13.496;2023-05-24T03:23:46;101171.28;;;13.99;53.76
26697;BME280;14312;52.614;13.496;2023-05-24T03:26:32;101159.19;;;13.96;53.96
26697;BME280;14312;52.614;13.496;2023-05-24T03:29:19;101159.47;;;14.00;53.94
26697;BME280;14312;52.614;13.496;2023-05-24T03:32:05;101164.84;;;14.00;53.77
26697;BME280;14312;52.614;13.496;2023-05-24T03:34:51;101165.94;;;13.99;53.88
26697;BME280;14312;52.614;13.496;2023-05-24T03:37:37;101164.31;;;13.98;53.92
26697;BME280;14312;52.614;13.496;2023-05-24T03:40:23;101173.41;;;13.97;54.00
26697;BME280;14312;52.614;13.496;2023-05-24T03:43:10;101176.66;;;13.99;54.04
26697;BME280;14312;52.614;13.496;2023-05-24T03:45:56;101178.19;;;13.95;54.02
26697;BME280;14312;52.614;13.496;2023-05-24T03:48:42;101180.88;;;13.95;53.98
26697;BME280;14312;52.614;13.496;2023-05-24T03:51:28;101187.84;;;13.96;54.17
26697;BME280;14312;52.614;13.496;2023-05-24T03:54:15;101173.88;;;13.94;54.09
26697;BME280;14312;52.614;13.496;2023-05-24T03:57:02;101182.50;;;13.96;54.19
26697;BME280;14312;52.614;13.496;2023-05-24T03:59:48;101180.88;;;13.95;54.21
26697;BME280;14312;52.614;13.496;2023-05-24T04:02:34;101178.19;;;13.95;54.42
26697;BME280;14312;52.614;13.496;2023-05-24T04:05:22;101182.50;;;13.96;54.19
26697;BME280;14312;52.614;13.496;2023-05-24T04:08:14;101183.31;;;13.96;54.41
26697;BME280;14312;52.614;13.496;2023-05-24T04:11:01;101179.81;;;13.96;54.39
26697;BME280;14312;52.614;13.496;2023-05-24T04:13:47;101182.00;;;13.99;54.51
26697;BME280;14312;52.614;13.496;2023-05-24T04:16:33;101187.91;;;14.01;54.58
26697;BME280;14312;52.614;13.496;2023-05-24T04:19:18;101186.38;;;14.05;54.62
26697;BME280;14312;52.614;13.496;2023-05-24T04:22:04;101191.22;;;14.08;54.41
26697;BME280;14312;52.614;13.496;2023-05-24T04:24:50;101190.97;;;14.09;54.47
26697;BME280;14312;52.614;13.496;2023-05-24T04:27:36;101198.25;;;14.14;54.52
26697;BME280;14312;52.614;13.496;2023-05-24T04:30:22;101204.19;;;14.16;54.40
26697;BME280;14312;52.614;13.496;2023-05-24T04:33:08;101201.00;;;14.19;54.36
26697;BME280;14312;52.614;13.496;2023-05-24T04:35:54;101209.88;;;14.20;54.19
26697;BME280;14312;52.614;13.496;2023-05-24T04:38:40;101198.34;;;14.19;54.10
26697;BME280;14312;52.614;13.496;2023-05-24T04:41:26;101207.44;;;14.18;53.97
26697;BME280;14312;52.614;13.496;2023-05-24T04:44:13;101209.53;;;14.16;54.26
26697;BME280;14312;52.614;13.496;2023-05-24T04:46:59;101218.16;;;14.18;54.12
26697;BME280;14312;52.614;13.496;2023-05-24T04:49:47;101209.06;;;14.19;54.12
26697;BME280;14312;52.614;13.496;2023-05-24T04:52:34;101221.41;;;14.20;54.13
26697;BME280;14312;52.614;13.496;2023-05-24T04:55:21;101216.03;;;14.20;54.21
26697;BME280;14312;52.614;13.496;2023-05-24T04:58:07;101217.91;;;14.20;54.20
26697;BME280;14312;52.614;13.496;2023-05-24T05:00:53;101224.91;;;14.21;54.12
26697;BME280;14312;52.614;13.496;2023-05-24T05:03:39;101236.97;;;14.23;54.03
26697;BME280;14312;52.614;13.496;2023-05-24T05:06:25;101229.97;;;14.22;54.04
26697;BME280;14312;52.614;13.496;2023-05-24T05:09:11;101231.59;;;14.23;54.03
26697;BME280;14312;52.614;13.496;2023-05-24T05:12:00;101243.97;;;14.24;54.02
26697;BME280;14312;52.614;13.496;2023-05-24T05:14:47;101234.84;;;14.25;54.07
26697;BME280;14312;52.614;13.496;2023-05-24T05:17:33;101237.28;;;14.27;53.95
26697;BME280;14312;52.614;13.496;2023-05-24T05:20:19;101235.97;;;14.29;53.97
26697;BME280;14312;52.614;13.496;2023-05-24T05:23:05;101248.31;;;14.30;53.66
26697;BME280;14312;52.614;13.496;2023-05-24T05:25:51;101246.44;;;14.31;53.79
26697;BME280;14312;52.614;13.496;2023-05-24T05:28:37;101247.50;;;14.30;53.78
26697;BME280;14312;52.614;13.496;2023-05-24T05:31:24;101246.69;;;14.29;53.76
26697;BME280;14312;52.614;13.496;2023-05-24T05:34:10;101255.78;;;14.28;53.81
26697;BME280;14312;52.614;13.496;2023-05-24T05:36:56;101252.56;;;14.26;53.61
26697;BME280;14312;52.614;13.496;2023-05-24T05:39:42;101255.25;;;14.26;53.74
26697;BME280;14312;52.614;13.496;2023-05-24T05:42:28;101254.44;;;14.26;53.72
26697;BME280;14312;52.614;13.496;2023-05-24T05:45:14;101250.94;;;14.25;53.87
26697;BME280;14312;52.614;13.496;2023-05-24T05:48:01;101252.00;;;14.24;53.83
26697;BME280;14312;52.614;13.496;2023-05-24T05:50:46;101264.59;;;14.24;53.93
26697;BME280;14312;52.614;13.496;2023-05-24T05:53:33;101269.72;;;14.25;53.92
26697;BME280;14312;52.614;13.496;2023-05-24T05:56:19;101272.38;;;14.25;53.83
26697;BME280;14312;52.614;13.496;2023-05-24T05:59:05;101280.19;;;14.27;53.84
26697;BME280;14312;52.614;13.496;2023-05-24T06:01:51;101278.31;;;14.27;54.00
26697;BME280;14312;52.614;13.496;2023-05-24T06:04:37;101283.16;;;14.30;54.13
26697;BME280;14312;52.614;13.496;2023-05-24T06:07:23;101275.94;;;14.31;54.15
26697;BME280;14312;52.614;13.496;2023-05-24T06:10:09;101285.66;;;14.37;53.97
26697;BME280;14312;52.614;13.496;2023-05-24T06:12:56;101281.72;;;14.39;53.81
26697;BME280;14312;52.614;13.496;2023-05-24T06:15:41;101288.47;;;14.42;53.83
26697;BME280;14312;52.614;13.496;2023-05-24T06:18:27;101284.69;;;14.43;53.69
26697;BME280;14312;52.614;13.496;2023-05-24T06:21:15;101292.50;;;14.44;53.73
26697;BME280;14312;52.614;13.496;2023-05-24T06:24:02;101289.34;;;14.47;54.00
26697;BME280;14312;52.614;13.496;2023-05-24T06:26:50;101293.13;;;14.52;54.23
26697;BME280;14312;52.614;13.496;2023-05-24T06:29:36;101291.59;;;14.56;53.99
26697;BME280;14312;52.614;13.496;2023-05-24T06:32:23;101303.19;;;14.61;53.94
26697;BME280;14312;52.614;13.496;2023-05-24T06:35:09;101304.03;;;14.67;53.98
26697;BME280;14312;52.614;13.496;2023-05-24T06:37:55;101311.09;;;14.73;53.81
26697;BME280;14312;52.614;13.496;2023-05-24T06:40:42;101299.88;;;14.76;53.78
26697;BME280;14312;52.614;13.496;2023-05-24T06:43:28;101307.16;;;14.80;53.74
26697;BME280;14312;52.614;13.496;2023-05-24T06:46:15;101316.88;;;14.86;53.49
26697;BME280;14312;52.614;13.496;2023-05-24T06:49:01;101322.56;;;14.90;53.48
26697;BME280;14312;52.614;13.496;2023-05-24T06:51:47;101324.19;;;14.91;53.28
26697;BME280;14312;52.614;13.496;2023-05-24T06:54:34;101323.09;;;14.92;53.39
26697;BME280;14312;52.614;13.496;2023-05-24T06:57:20;101329.84;;;14.95;53.47
26697;BME280;14312;52.614;13.496;2023-05-24T07:00:07;101323.19;;;14.97;53.56
26697;BME280;14312;52.614;13.496;2023-05-24T07:02:56;101334.00;;;15.07;53.51
26697;BME280;14312;52.614;13.496;2023-05-24T07:05:42;101336.25;;;15.15;53.67
26697;BME280;14312;52.614;13.496;2023-05-24T07:08:28;101330.19;;;15.25;53.59
26697;BME280;14312;52.614;13.496;2023-05-24T07:11:14;101325.22;;;15.39;53.70
26697;BME280;14312;52.614;13.496;2023-05-24T07:14:00;101330.66;;;15.49;53.60
26697;BME280;14312;52.614;13.496;2023-05-24T07:16:46;101327.03;;;15.60;53.54
26697;BME280;14312;52.614;13.496;2023-05-24T07:19:33;101336.25;;;15.69;53.28
26697;BME280;14312;52.614;13.496;2023-05-24T07:22:20;101342.75;;;15.78;53.15
26697;BME280;14312;52.614;13.496;2023-05-24T07:25:07;101341.22;;;15.87;53.13
26697;BME280;14312;52.614;13.496;2023-05-24T07:27:54;101347.75;;;15.96;52.79
26697;BME280;14312;52.614;13.496;2023-05-24T07:30:40;101346.72;;;16.02;52.77
26697;BME280;14312;52.614;13.496;2023-05-24T07:33:26;101344.06;;;16.08;52.68
26697;BME280;14312;52.614;13.496;2023-05-24T07:36:13;101359.16;;;16.14;52.52
26697;BME280;14312;52.614;13.496;2023-05-24T07:39:01;101355.69;;;16.18;52.27
26697;BME280;14312;52.614;13.496;2023-05-24T07:41:48;101355.97;;;16.22;52.26
26697;BME280;14312;52.614;13.496;2023-05-24T07:44:35;101358.41;;;16.23;52.21
26697;BME280;14312;52.614;13.496;2023-05-24T07:47:21;101362.47;;;16.26;52.36
26697;BME280;14312;52.614;13.496;2023-05-24T07:50:08;101361.94;;;16.29;52.00
26697;BME280;14312;52.614;13.496;2023-05-24T07:52:57;101370.06;;;16.34;51.94
26697;BME280;14312;52.614;13.496;2023-05-24T07:55:43;101372.47;;;16.35;52.04
26697;BME280;14312;52.614;13.496;2023-05-24T07:58:29;101371.16;;;16.38;52.13
26697;BME280;14312;52.614;13.496;2023-05-24T08:01:15;101369.00;;;16.40;51.74
26697;BME280;14312;52.614;13.496;2023-05-24T08:04:03;101368.47;;;16.43;52.20
26697;BME280;14312;52.614;13.496;2023-05-24T08:06:49;101378.19;;;16.49;52.04
26697;BME280;14312;52.614;13.496;2023-05-24T08:09:35;101371.78;;;16.55;52.03
26697;BME280;14312;52.614;13.496;2023-05-24T08:12:22;101376.16;;;16.61;51.97
26697;BME280;14312;52.614;13.496;2023-05-24T08:15:10;101363.78;;;16.70;52.13
26697;BME280;14312;52.614;13.496;2023-05-24T08:17:56;101368.69;;;16.78;51.56
26697;BME280;14312;52.614;13.496;2023-05-24T08:20:42;101379.50;;;16.83;51.27
26697;BME280;14312;52.614;13.496;2023-05-24T08:23:28;101381.66;;;16.87;51.45
26697;BME280;14312;52.614;13.496;2023-05-24T08:26:14;101380.84;;;16.91;51.41
26697;BME280;14312;52.614;13.496;2023-05-24T08:29:03;101388.16;;;16.96;51.05
26697;BME280;14312;52.614;13.496;2023-05-24T08:31:50;101388.69;;;16.98;51.29
26697;BME280;14312;52.614;13.496;2023-05-24T08:34:36;101382.22;;;16.99;51.07
26697;BME280;14312;52.614;13.496;2023-05-24T08:37:22;101392.19;;;16.98;51.09
26697;BME280;14312;52.614;13.496;2023-05-24T08:40:08;101398.38;;;16.99;50.94
26697;BME280;14312;52.614;13.496;2023-05-24T08:42:58;101393.00;;;16.99;50.54
26697;BME280;14312;52.614;13.496;2023-05-24T08:45:45;101392.19;;;16.98;50.58
26697;BME280;14312;52.614;13.496;2023-05-24T08:48:31;101393.78;;;16.94;50.22
26697;BME280;14312;52.614;13.496;2023-05-24T08:51:18;101397.56;;;16.93;50.54
26697;BME280;14312;52.614;13.496;2023-05-24T08:54:05;101395.16;;;16.97;50.93
26697;BME280;14312;52.614;13.496;2023-05-24T08:56:52;101401.63;;;17.01;50.74
26697;BME280;14312;52.614;13.496;2023-05-24T08:59:41;101402.69;;;17.00;50.42
26697;BME280;14312;52.614;13.496;2023-05-24T09:02:31;101404.31;;;16.96;50.30
26697;BME280;14312;52.614;13.496;2023-05-24T09:05:17;101404.81;;;16.93;50.70
26697;BME280;14312;52.614;13.496;2023-05-24T09:08:07;101401.88;;;16.94;50.69
26697;BME280;14312;52.614;13.496;2023-05-24T09:10:55;101410.19;;;16.93;50.58
26697;BME280;14312;52.614;13.496;2023-05-24T09:13:43;101412.38;;;16.96;50.37
26697;BME280;14312;52.614;13.496;2023-05-24T09:16:30;101408.06;;;16.95;50.28
26697;BME280;14312;52.614;13.496;2023-05-24T09:19:18;101410.75;;;16.95;50.04
26697;BME280;14312;52.614;13.496;2023-05-24T09:22:05;101407.81;;;16.96;50.21
26697;BME280;14312;52.614;13.496;2023-05-24T09:24:52;101404.56;;;16.99;50.29
26697;BME280;14312;52.614;13.496;2023-05-24T09:27:38;101402.19;;;17.08;50.11
26697;BME280;14312;52.614;13.496;2023-05-24T09:30:24;101404.38;;;17.16;49.98
26697;BME280;14312;52.614;13.496;2023-05-24T09:33:10;101403.31;;;17.22;50.05
26697;BME280;14312;52.614;13.496;2023-05-24T09:35:58;101423.81;;;17.28;50.11
26697;BME280;14312;52.614;13.496;2023-05-24T09:38:44;101410.88;;;17.30;49.90
26697;BME280;14312;52.614;13.496;2023-05-24T09:41:30;101414.13;;;17.32;49.82
26697;BME280;14312;52.614;13.496;2023-05-24T09:44:17;101416.81;;;17.32;49.62
26697;BME280;14312;52.614;13.496;2023-05-24T09:47:03;101417.91;;;17.31;49.59
26697;BME280;14312;52.614;13.496;2023-05-24T09:49:51;101410.88;;;17.30;49.59
26697;BME280;14312;52.614;13.496;2023-05-24T09:52:37;101417.91;;;17.31;49.64
26697;BME280;14312;52.614;13.496;2023-05-24T09:55:25;101409.81;;;17.36;49.69
26697;BME280;14312;52.614;13.496;2023-05-24T09:58:12;101417.09;;;17.41;49.68
26697;BME280;14312;52.614;13.496;2023-05-24T10:01:09;101421.44;;;17.47;49.72
26697;BME280;14312;52.614;13.496;2023-05-24T10:04:03;101420.09;;;17.49;50.07
26697;BME280;14312;52.614;13.496;2023-05-24T10:06:51;101425.50;;;17.59;49.87
26697;BME280;14312;52.614;13.496;2023-05-24T10:09:37;101423.94;;;17.69;49.78
26697;BME280;14312;52.614;13.496;2023-05-24T10:12:24;101432.56;;;17.81;50.00
26697;BME280;14312;52.614;13.496;2023-05-24T10:15:10;101430.97;;;17.90;49.51
26697;BME280;14312;52.614;13.496;2023-05-24T10:17:57;101433.66;;;18.00;49.24
26697;BME280;14312;52.614;13.496;2023-05-24T10:20:43;101427.72;;;18.03;48.92
26697;BME280;14312;52.614;13.496;2023-05-24T10:23:30;101435.81;;;18.03;48.70
26697;BME280;14312;52.614;13.496;2023-05-24T10:26:18;101437.97;;;18.01;48.16
26697;BME280;14312;52.614;13.496;2023-05-24T10:29:06;101440.69;;;17.96;47.93
26697;BME280;14312;52.614;13.496;2023-05-24T10:31:56;101442.28;;;17.87;47.95
26697;BME280;14312;52.614;13.496;2023-05-24T10:34:44;101441.72;;;17.80;48.05
26697;BME280;14312;52.614;13.496;2023-05-24T10:37:30;101437.41;;;17.69;48.36
26697;BME280;14312;52.614;13.496;2023-05-24T10:40:18;101440.13;;;17.69;48.58
26697;BME280;14312;52.614;13.496;2023-05-24T10:43:10;101446.28;;;17.69;49.15
26697;BME280;14312;52.614;13.496;2023-05-24T10:45:56;101442.81;;;17.74;49.10
26697;BME280;14312;52.614;13.496;2023-05-24T10:48:42;101447.13;;;17.80;49.28
26697;BME280;14312;52.614;13.496;2023-05-24T10:51:37;101443.91;;;17.88;49.41
26697;BME280;14312;52.614;13.496;2023-05-24T10:54:24;101453.09;;;17.97;49.16
26697;BME280;14312;52.614;13.496;2023-05-24T10:57:11;101446.06;;;18.06;48.95
26697;BME280;14312;52.614;13.496;2023-05-24T11:03:12;101447.13;;;18.30;48.59
26697;BME280;14312;52.614;13.496;2023-05-24T11:06:08;101436.88;;;18.43;48.37
26697;BME280;14312;52.614;13.496;2023-05-24T11:08:58;101450.91;;;18.60;48.42
26697;BME280;14312;52.614;13.496;2023-05-24T11:11:46;101446.03;;;18.72;49.00
26697;BME280;14312;52.614;13.496;2023-05-24T11:14:35;101434.06;;;18.93;48.49
26697;BME280;14312;52.614;13.496;2023-05-24T11:17:22;101438.31;;;19.14;48.10
26697;BME280;14312;52.614;13.496;2023-05-24T11:20:08;101428.47;;;19.34;47.84
26697;BME280;14312;52.614;13.496;2023-05-24T11:22:54;101428.16;;;19.50;47.61
26697;BME280;14312;52.614;13.496;2023-05-24T11:25:41;101424.78;;;19.69;46.91
26697;BME280;14312;52.614;13.496;2023-05-24T11:28:28;101433.59;;;19.84;47.32
26697;BME280;14312;52.614;13.496;2023-05-24T11:31:14;101432.94;;;19.98;46.62
26697;BME280;14312;52.614;13.496;2023-05-24T11:34:00;101434.50;;;20.09;45.21
26697;BME280;14312;52.614;13.496;2023-05-24T11:36:46;101424.16;;;20.16;44.86
26697;BME280;14312;52.614;13.496;2023-05-24T11:39:35;101430.03;;;20.23;44.83
26697;BME280;14312;52.614;13.496;2023-05-24T11:42:21;101424.53;;;20.33;44.19
26697;BME280;14312;52.614;13.496;2023-05-24T11:45:09;101429.28;;;20.46;43.44
26697;BME280;14312;52.614;13.496;2023-05-24T11:47:55;101427.34;;;20.52;43.79
26697;BME280;14312;52.614;13.496;2023-05-24T11:50:42;101423.78;;;20.56;43.53
26697;BME280;14312;52.614;13.496;2023-05-24T11:53:28;101428.09;;;20.57;42.87
26697;BME280;14312;52.614;13.496;2023-05-24T11:56:15;101431.94;;;20.51;43.29
26697;BME280;14312;52.614;13.496;2023-05-24T11:59:08;101435.28;;;20.43;43.06
26697;BME280;14312;52.614;13.496;2023-05-24T12:01:57;101443.22;;;20.35;43.47
26697;BME280;14312;52.614;13.496;2023-05-24T12:04:44;101440.28;;;20.26;43.89
26697;BME280;14312;52.614;13.496;2023-05-24T12:07:31;101449.59;;;20.15;44.09
26697;BME280;14312;52.614;13.496;2023-05-24T12:10:18;101440.19;;;20.07;44.48
26697;BME280;14312;52.614;13.496;2023-05-24T12:13:05;101448.84;;;20.04;44.57
26697;BME280;14312;52.614;13.496;2023-05-24T12:15:54;101441.84;;;20.03;44.70
26697;BME280;14312;52.614;13.496;2023-05-24T12:18:40;101447.22;;;20.08;44.70
26697;BME280;14312;52.614;13.496;2023-05-24T12:21:29;101447.41;;;20.17;44.24
26697;BME280;14312;52.614;13.496;2023-05-24T12:24:17;101444.41;;;20.18;44.25
26697;BME280;14312;52.614;13.496;2023-05-24T12:27:05;101441.41;;;20.20;43.98
26697;BME280;14312;52.614;13.496;2023-05-24T12:29:52;101444.31;;;20.28;44.38
26697;BME280;14312;52.614;13.496;2023-05-24T12:32:38;101434.69;;;20.46;44.67
26697;BME280;14312;52.614;13.496;2023-05-24T12:35:23;101441.50;;;20.67;44.72
26697;BME280;14312;52.614;13.496;2023-05-24T12:38:10;101430.41;;;20.93;44.79
26697;BME280;14312;52.614;13.496;2023-05-24T12:40:55;101427.09;;;21.20;44.09
26697;BME280;14312;52.614;13.496;2023-05-24T12:43:41;101432.69;;;21.47;43.32
26697;BME280;14312;52.614;13.496;2023-05-24T12:46:29;101430.28;;;21.64;41.87
26697;BME280;14312;52.614;13.496;2023-05-24T12:49:15;101430.44;;;21.73;42.41
26697;BME280;14312;52.614;13.496;2023-05-24T12:52:01;101442.28;;;21.77;42.27
26697;BME280;14312;52.614;13.496;2023-05-24T12:54:47;101440.09;;;21.79;42.33
26697;BME280;14312;52.614;13.496;2023-05-24T12:57:34;101435.78;;;21.78;42.40
26697;BME280;14312;52.614;13.496;2023-05-24T13:00:24;101446.72;;;21.73;42.17
26697;BME280;14312;52.614;13.496;2023-05-24T13:03:13;101440.84;;;21.66;41.75
26697;BME280;14312;52.614;13.496;2023-05-24T13:05:59;101447.78;;;21.53;42.10
26697;BME280;14312;52.614;13.496;2023-05-24T13:08:46;101437.66;;;21.40;42.17
26697;BME280;14312;52.614;13.496;2023-05-24T13:11:32;101441.63;;;21.29;42.36
26697;BME280;14312;52.614;13.496;2023-05-24T13:14:17;101445.81;;;21.21;42.45
26697;BME280;14312;52.614;13.496;2023-05-24T13:17:05;101451.28;;;21.16;42.43
26697;BME280;14312;52.614;13.496;2023-05-24T13:19:51;101444.31;;;21.10;42.74
26697;BME280;14312;52.614;13.496;2023-05-24T13:22:37;101446.41;;;21.13;42.62
26697;BME280;14312;52.614;13.496;2023-05-24T13:25:23;101429.06;;;21.14;42.60
26697;BME280;14312;52.614;13.496;2023-05-24T13:28:11;101438.75;;;21.20;42.39
26697;BME280;14312;52.614;13.496;2023-05-24T13:30:57;101434.88;;;21.26;42.02
26697;BME280;14312;52.614;13.496;2023-05-24T13:33:43;101433.72;;;21.32;42.54
26697;BME280;14312;52.614;13.496;2023-05-24T13:36:29;101434.03;;;21.49;41.93
26697;BME280;14312;52.614;13.496;2023-05-24T13:39:15;101439.16;;;21.70;40.78
26697;BME280;14312;52.614;13.496;2023-05-24T13:42:01;101438.41;;;21.83;40.55
26697;BME280;14312;52.614;13.496;2023-05-24T13:44:47;101438.47;;;21.97;41.13
26697;BME280;14312;52.614;13.496;2023-05-24T13:47:33;101440.13;;;22.11;41.21
26697;BME280;14312;52.614;13.496;2023-05-24T13:50:19;101433.88;;;22.30;41.63
26697;BME280;14312;52.614;13.496;2023-05-24T13:53:07;101432.38;;;22.51;41.37
26697;BME280;14312;52.614;13.496;2023-05-24T13:55:53;101433.31;;;22.74;41.37
26697;BME280;14312;52.614;13.496;2023-05-24T13:58:39;101433.13;;;22.97;40.25
26697;BME280;14312;52.614;13.496;2023-05-24T14:01:26;101435.31;;;23.09;39.76
26697;BME280;14312;52.614;13.496;2023-05-24T14:04:11;101441.78;;;23.13;39.89
26697;BME280;14312;52.614;13.496;2023-05-24T14:06:57;101433.91;;;23.12;39.66
26697;BME280;14312;52.614;13.496;2023-05-24T14:09:44;101435.31;;;23.09;39.71
26697;BME280;14312;52.614;13.496;2023-05-24T14:12:30;101430.69;;;23.10;40.09
26697;BME280;14312;52.614;13.496;2023-05-24T14:15:16;101433.78;;;23.17;40.07
26697;BME280;14312;52.614;13.496;2023-05-24T14:18:02;101432.88;;;23.35;39.70
26697;BME280;14312;52.614;13.496;2023-05-24T14:20:52;101426.81;;;23.52;39.42
26697;BME280;14312;52.614;13.496;2023-05-24T14:23:38;101431.41;;;23.65;38.85
26697;BME280;14312;52.614;13.496;2023-05-24T14:26:24;101424.53;;;23.67;38.49
26697;BME280;14312;52.614;13.496;2023-05-24T14:29:10;101416.69;;;23.66;36.63
26697;BME280;14312;52.614;13.496;2023-05-24T14:31:56;101410.66;;;23.55;37.45
26697;BME280;14312;52.614;13.496;2023-05-24T14:34:42;101417.34;;;23.49;38.20